Time;durP1;ratioP1;P1;durP2;ratioP2;P2;SDS_P1;SDS_P2;PMS_P1;PMS_P2;Temp;Humidity;BMP_temperature;BMP_pressure;BME280_temperature;BME280_humidity;BME280_pressure;Samples;Min_cycle;Max_cycle;Signal;HPM_P1;HPM_P2
2021/05/23 00:00:46;;;;;;;6.47;2.10;;;18.90;96.70;;;;;;5099111;28;20043;-75
2021/05/23 00:03:15;;;;;;;8.18;2.42;;;19.00;96.70;;;;;;5101021;28;21023;-75
2021/05/23 00:05:45;;;;;;;7.40;2.78;;;19.00;96.70;;;;;;5098175;28;20104;-75
2021/05/23 00:08:16;;;;;;;9.35;2.67;;;19.00;96.70;;;;;;5100080;28;20112;-75
2021/05/23 00:10:50;;;;;;;6.82;2.40;;;19.00;96.70;;;;;;5096283;28;20513;-75
2021/05/23 00:13:21;;;;;;;7.90;2.75;;;18.90;96.70;;;;;;5097356;28;20054;-75
2021/05/23 00:15:55;;;;;;;7.43;2.90;;;18.90;96.70;;;;;;5076085;28;20048;-75
2021/05/23 00:18:26;;;;;;;7.95;2.55;;;18.90;96.70;;;;;;5100145;28;20028;-75
2021/05/23 00:20:56;;;;;;;6.95;2.72;;;18.90;96.70;;;;;;5102300;27;20091;-75
2021/05/23 00:23:25;;;;;;;7.10;2.80;;;18.90;96.70;;;;;;5098748;28;20478;-75
2021/05/23 00:25:55;;;;;;;6.50;2.40;;;18.80;96.70;;;;;;5097004;28;20124;-75
2021/05/23 00:28:23;;;;;;;6.90;2.40;;;18.80;96.70;;;;;;5096154;28;20038;-75
2021/05/23 00:30:53;;;;;;;7.45;2.53;;;18.80;96.70;;;;;;5085383;28;20451;-75
2021/05/23 00:33:21;;;;;;;7.25;2.80;;;18.80;96.70;;;;;;5100247;28;20043;-75
2021/05/23 00:35:50;;;;;;;6.03;2.75;;;18.80;96.70;;;;;;5100212;28;20401;-75
2021/05/23 00:38:20;;;;;;;6.03;2.42;;;18.80;96.70;;;;;;5100756;28;20035;-75
2021/05/23 00:40:49;;;;;;;8.27;3.25;;;18.80;96.70;;;;;;5101303;28;20592;-75
2021/05/23 00:43:19;;;;;;;11.05;2.60;;;18.80;96.70;;;;;;5099194;28;20427;-75
2021/05/23 00:45:49;;;;;;;9.40;2.50;;;18.80;96.70;;;;;;5100597;28;20074;-75
2021/05/23 00:48:18;;;;;;;11.93;2.53;;;18.80;96.70;;;;;;5100466;28;20437;-74
2021/05/23 00:50:48;;;;;;;9.82;2.95;;;18.80;96.70;;;;;;5100397;28;20401;-75
2021/05/23 00:53:17;;;;;;;8.20;2.75;;;18.80;96.70;;;;;;5094974;28;20035;-75
2021/05/23 00:55:46;;;;;;;10.30;3.42;;;18.70;96.70;;;;;;5101558;27;20064;-75
2021/05/23 00:58:16;;;;;;;9.00;2.50;;;18.70;96.70;;;;;;5094301;28;20867;-75
2021/05/23 01:01:11;;;;;;;9.82;3.08;;;18.70;96.70;;;;;;5080339;28;20150;-75
2021/05/23 01:04:00;;;;;;;8.15;2.47;;;18.70;96.70;;;;;;5097837;28;20532;-75
2021/05/23 01:06:32;;;;;;;7.93;2.78;;;18.70;96.70;;;;;;5083196;28;20043;-75
2021/05/23 01:09:02;;;;;;;9.80;2.90;;;18.70;96.70;;;;;;5099658;28;20416;-75
2021/05/23 01:12:09;;;;;;;4.93;2.10;;;18.70;96.70;;;;;;5098070;28;20039;-75
2021/05/23 01:15:04;;;;;;;8.43;2.83;;;18.60;96.70;;;;;;5095418;28;20152;-75
2021/05/23 01:17:46;;;;;;;8.02;2.88;;;18.50;96.70;;;;;;5096977;28;20157;-75
2021/05/23 01:20:26;;;;;;;8.95;2.85;;;18.60;96.70;;;;;;5081099;28;20429;-74
2021/05/23 01:23:25;;;;;;;7.25;2.75;;;18.60;96.70;;;;;;5077755;28;20347;-75
2021/05/23 01:26:06;;;;;;;8.85;2.50;;;18.60;96.70;;;;;;5079815;28;20132;-75
2021/05/23 01:28:44;;;;;;;7.78;2.80;;;18.60;96.70;;;;;;5099487;28;20556;-75
2021/05/23 01:31:16;;;;;;;5.45;2.20;;;18.60;96.70;;;;;;5092514;28;20588;-75
2021/05/23 01:33:50;;;;;;;5.65;2.40;;;18.60;96.70;;;;;;5078803;28;20413;-75
2021/05/23 01:36:22;;;;;;;8.93;2.85;;;18.60;96.70;;;;;;5098623;28;20044;-75
2021/05/23 01:38:52;;;;;;;10.82;2.80;;;18.50;96.70;;;;;;5100866;28;20134;-75
2021/05/23 01:41:23;;;;;;;6.55;2.60;;;18.50;96.70;;;;;;5096396;28;20044;-74
2021/05/23 01:43:53;;;;;;;5.65;2.30;;;18.50;96.70;;;;;;5101678;28;20050;-75
2021/05/23 01:46:23;;;;;;;8.38;2.30;;;18.50;96.70;;;;;;5099132;28;20035;-75
2021/05/23 01:48:53;;;;;;;6.45;2.58;;;18.60;96.70;;;;;;5084874;28;20557;-75
2021/05/23 01:51:23;;;;;;;9.57;2.63;;;18.50;96.70;;;;;;5098707;28;20120;-74
2021/05/23 01:53:52;;;;;;;9.57;2.70;;;18.50;96.70;;;;;;5082963;28;20044;-75
2021/05/23 01:56:22;;;;;;;7.22;2.53;;;18.60;96.70;;;;;;5097700;28;20074;-75
2021/05/23 01:58:50;;;;;;;5.68;2.53;;;18.50;96.70;;;;;;5100568;28;20051;-74
2021/05/23 02:01:20;;;;;;;10.32;2.70;;;18.50;96.70;;;;;;5102832;28;20036;-74
2021/05/23 02:03:49;;;;;;;7.43;1.98;;;18.50;96.70;;;;;;5099103;28;20069;-74
2021/05/23 02:06:18;;;;;;;7.80;2.08;;;18.50;96.70;;;;;;5086615;28;20047;-75
2021/05/23 02:08:48;;;;;;;10.38;2.60;;;18.50;96.70;;;;;;5102789;28;20050;-74
2021/05/23 02:11:16;;;;;;;7.82;2.78;;;18.50;96.70;;;;;;5104284;28;20032;-75
2021/05/23 02:13:51;;;;;;;8.45;3.00;;;18.50;96.70;;;;;;5103721;28;20044;-75
2021/05/23 02:16:20;;;;;;;5.13;2.30;;;18.60;96.70;;;;;;5103136;28;20463;-75
2021/05/23 02:18:49;;;;;;;7.25;2.22;;;18.60;96.70;;;;;;5099785;28;20127;-75
2021/05/23 02:21:18;;;;;;;7.95;2.60;;;18.60;96.70;;;;;;5102100;28;20054;-75
2021/05/23 02:23:53;;;;;;;6.88;2.40;;;18.60;96.70;;;;;;5101184;28;20100;-75
2021/05/23 02:26:23;;;;;;;4.43;1.73;;;18.50;96.70;;;;;;5101916;28;20043;-75
2021/05/23 02:28:53;;;;;;;9.40;2.97;;;18.50;96.70;;;;;;5091652;28;20539;-74
2021/05/23 02:31:29;;;;;;;6.35;2.47;;;18.50;96.70;;;;;;5086079;28;20035;-74
2021/05/23 02:33:59;;;;;;;8.20;2.55;;;18.50;96.70;;;;;;5094253;28;20389;-74
2021/05/23 02:36:28;;;;;;;8.85;2.70;;;18.50;96.70;;;;;;5102927;28;20093;-75
2021/05/23 02:38:55;;;;;;;8.07;2.50;;;18.40;96.70;;;;;;5085040;28;20043;-75
2021/05/23 02:41:24;;;;;;;6.88;2.00;;;18.40;96.70;;;;;;5103641;27;20050;-74
2021/05/23 02:43:53;;;;;;;6.68;2.05;;;18.40;96.70;;;;;;5100050;28;20081;-75
2021/05/23 02:46:21;;;;;;;7.97;2.60;;;18.40;96.70;;;;;;5103175;28;20059;-74
2021/05/23 02:48:51;;;;;;;8.10;2.60;;;18.40;96.70;;;;;;5098853;28;20069;-74
2021/05/23 02:51:21;;;;;;;7.45;2.10;;;18.30;96.70;;;;;;5105359;28;20122;-75
2021/05/23 02:53:49;;;;;;;10.93;2.65;;;18.30;96.70;;;;;;5098051;28;20093;-74
2021/05/23 02:56:18;;;;;;;8.18;2.53;;;18.20;96.70;;;;;;5102123;28;20096;-74
2021/05/23 02:58:47;;;;;;;8.50;2.30;;;18.20;96.70;;;;;;5102685;28;20147;-74
2021/05/23 03:01:17;;;;;;;9.85;2.67;;;18.10;96.70;;;;;;5101073;28;20134;-74
2021/05/23 03:03:47;;;;;;;12.13;2.78;;;18.10;96.70;;;;;;5091853;28;20043;-74
2021/05/23 03:06:17;;;;;;;6.55;2.50;;;18.00;96.70;;;;;;5101309;28;20036;-74
2021/05/23 03:08:47;;;;;;;8.35;2.50;;;18.10;96.70;;;;;;5102187;28;20048;-75
2021/05/23 03:11:17;;;;;;;7.68;2.65;;;18.10;96.70;;;;;;5100471;28;20047;-75
2021/05/23 03:13:47;;;;;;;13.05;2.70;;;18.20;96.70;;;;;;5099421;28;20406;-74
2021/05/23 03:16:17;;;;;;;8.00;2.20;;;18.20;96.70;;;;;;5101877;28;20496;-74
2021/05/23 03:18:46;;;;;;;9.07;2.60;;;18.00;96.70;;;;;;5099706;28;20135;-74
2021/05/23 03:21:23;;;;;;;10.52;2.83;;;18.00;96.70;;;;;;5090468;28;20090;-74
2021/05/23 03:23:53;;;;;;;5.88;2.42;;;18.00;96.70;;;;;;5085840;28;20082;-74
2021/05/23 03:26:23;;;;;;;7.78;2.60;;;18.00;96.70;;;;;;5097984;28;20044;-74
2021/05/23 03:28:52;;;;;;;8.35;2.40;;;17.90;96.70;;;;;;5083450;28;20089;-74
2021/05/23 03:31:21;;;;;;;8.40;2.95;;;18.00;96.70;;;;;;5102696;28;20213;-75
2021/05/23 03:33:49;;;;;;;9.02;2.72;;;17.90;96.70;;;;;;5103088;28;20043;-75
2021/05/23 03:36:19;;;;;;;12.18;2.85;;;17.90;96.70;;;;;;5095529;28;20130;-75
2021/05/23 03:38:48;;;;;;;7.28;2.47;;;17.80;96.70;;;;;;5102639;28;20547;-75
2021/05/23 03:41:17;;;;;;;7.20;2.50;;;17.80;96.70;;;;;;5098888;28;20628;-75
2021/05/23 03:43:46;;;;;;;5.43;2.20;;;17.80;96.70;;;;;;5095643;28;20032;-75
2021/05/23 03:46:16;;;;;;;7.53;2.55;;;17.80;96.70;;;;;;5096430;28;20516;-75
2021/05/23 03:48:46;;;;;;;10.55;3.22;;;17.80;96.70;;;;;;5096688;28;20115;-75
2021/05/23 03:54:42;;;;;;;7.00;2.10;;;17.90;96.70;;;;;;5095125;28;20532;-75
2021/05/23 03:57:10;;;;;;;7.00;2.58;;;18.00;96.70;;;;;;5102161;27;20071;-74
2021/05/23 03:59:38;;;;;;;8.93;2.60;;;18.10;96.70;;;;;;5097743;28;20499;-75
2021/05/23 04:02:06;;;;;;;8.02;2.42;;;18.10;96.70;;;;;;5101802;28;20062;-75
2021/05/23 04:04:57;;;;;;;5.85;2.40;;;18.20;96.70;;;;;;5097955;28;20048;-75
2021/05/23 04:07:26;;;;;;;6.78;2.47;;;18.20;96.70;;;;;;5094485;28;20046;-75
2021/05/23 04:09:57;;;;;;;6.72;2.08;;;18.20;96.70;;;;;;5098834;28;20043;-75
2021/05/23 04:12:30;;;;;;;6.47;2.45;;;18.10;96.70;;;;;;5101881;28;20146;-75
2021/05/23 04:14:59;;;;;;;10.27;2.63;;;18.20;96.70;;;;;;5101099;28;20063;-75
2021/05/23 04:17:28;;;;;;;4.97;2.38;;;18.20;96.70;;;;;;5098305;28;20092;-75
2021/05/23 04:19:58;;;;;;;8.45;3.08;;;18.20;96.70;;;;;;5082204;28;20402;-75
2021/05/23 04:22:27;;;;;;;7.80;2.85;;;18.20;96.70;;;;;;5100791;28;20050;-75
2021/05/23 04:24:56;;;;;;;9.68;3.05;;;18.20;96.70;;;;;;5096632;28;20039;-75
2021/05/23 04:27:28;;;;;;;8.23;3.03;;;18.10;96.70;;;;;;5099615;28;20032;-75
2021/05/23 04:29:57;;;;;;;6.18;2.30;;;18.20;96.70;;;;;;5092389;28;20093;-75
2021/05/23 04:32:25;;;;;;;7.78;2.55;;;18.20;96.70;;;;;;5115780;27;20460;-74
2021/05/23 04:34:53;;;;;;;10.90;2.80;;;18.20;96.70;;;;;;5079684;28;20397;-74
2021/05/23 04:37:22;;;;;;;7.88;2.50;;;18.20;96.70;;;;;;5081557;28;20055;-74
2021/05/23 04:39:50;;;;;;;10.35;2.70;;;18.30;96.70;;;;;;5078618;28;20098;-74
2021/05/23 04:42:19;;;;;;;6.05;2.60;;;18.30;96.70;;;;;;5083993;28;20059;-74
2021/05/23 04:45:09;;;;;;;5.25;2.42;;;18.20;96.70;;;;;;5101485;28;20636;-75
2021/05/23 04:47:37;;;;;;;7.05;2.65;;;18.30;96.70;;;;;;5094015;28;21802;-74
2021/05/23 04:50:07;;;;;;;9.65;2.67;;;18.30;96.70;;;;;;5099405;28;20028;-75
2021/05/23 04:52:36;;;;;;;9.93;2.58;;;18.30;96.70;;;;;;5092699;28;20104;-74
2021/05/23 04:55:06;;;;;;;5.32;2.17;;;18.30;96.70;;;;;;5089207;28;20047;-75
2021/05/23 04:57:35;;;;;;;11.98;2.80;;;18.30;96.70;;;;;;5097350;28;20039;-74
2021/05/23 05:00:05;;;;;;;8.27;2.45;;;18.40;96.70;;;;;;5101531;28;20048;-74
2021/05/23 05:02:33;;;;;;;8.98;2.70;;;18.40;96.70;;;;;;5096179;28;20409;-74
2021/05/23 05:05:03;;;;;;;5.82;3.00;;;18.40;96.70;;;;;;5097813;28;20158;-75
2021/05/23 05:07:32;;;;;;;6.55;2.30;;;18.50;96.70;;;;;;5082228;28;20112;-75
2021/05/23 05:10:01;;;;;;;6.85;2.60;;;18.50;96.70;;;;;;5095423;28;20524;-75
2021/05/23 05:12:29;;;;;;;11.82;3.38;;;18.60;96.70;;;;;;5094632;28;20050;-75
2021/05/23 05:14:58;;;;;;;9.55;2.50;;;18.60;96.70;;;;;;5101919;28;20040;-75
2021/05/23 05:17:26;;;;;;;8.35;2.92;;;18.60;96.70;;;;;;5093034;28;20051;-75
2021/05/23 05:19:54;;;;;;;9.18;2.47;;;18.60;96.70;;;;;;5096270;28;20557;-75
2021/05/23 05:22:22;;;;;;;8.18;2.63;;;18.50;96.70;;;;;;5096834;28;20044;-75
2021/05/23 05:24:50;;;;;;;6.45;2.35;;;18.60;96.70;;;;;;5100878;28;20039;-75
2021/05/23 05:27:21;;;;;;;6.82;2.30;;;18.60;96.70;;;;;;5082462;28;20051;-74
2021/05/23 05:29:49;;;;;;;6.50;2.08;;;18.50;96.70;;;;;;5101619;28;20059;-74
2021/05/23 05:32:17;;;;;;;6.63;2.20;;;18.60;96.70;;;;;;5096007;28;20055;-75
2021/05/23 05:34:45;;;;;;;6.88;2.53;;;18.70;96.70;;;;;;5102486;28;20497;-75
2021/05/23 05:37:13;;;;;;;5.35;2.38;;;18.70;96.70;;;;;;5081507;28;20485;-75
2021/05/23 05:39:43;;;;;;;12.00;2.50;;;18.90;96.70;;;;;;5105255;28;20051;-75
2021/05/23 05:42:11;;;;;;;8.05;2.30;;;18.90;96.70;;;;;;5103203;28;20417;-75
2021/05/23 05:44:40;;;;;;;6.70;2.97;;;19.00;96.70;;;;;;5101948;28;20044;-75
2021/05/23 05:47:08;;;;;;;6.65;1.95;;;19.00;96.70;;;;;;5100127;28;20039;-75
2021/05/23 05:49:37;;;;;;;7.35;2.78;;;19.10;96.70;;;;;;5086318;28;20650;-75
2021/05/23 05:52:08;;;;;;;5.60;2.85;;;19.10;96.70;;;;;;5097403;28;20497;-75
2021/05/23 05:54:37;;;;;;;10.70;2.70;;;19.30;96.70;;;;;;5102298;28;20039;-75
2021/05/23 05:57:05;;;;;;;10.45;2.42;;;19.30;96.70;;;;;;5098061;28;20094;-75
2021/05/23 05:59:45;;;;;;;10.10;2.30;;;19.30;96.70;;;;;;5101722;28;20122;-75
2021/05/23 06:02:14;;;;;;;8.60;2.40;;;19.40;96.70;;;;;;5098719;28;20036;-75
2021/05/23 06:04:42;;;;;;;7.90;2.53;;;19.50;96.70;;;;;;5102074;28;20546;-76
2021/05/23 06:07:10;;;;;;;5.60;2.38;;;19.50;96.70;;;;;;5101836;28;20044;-75
2021/05/23 06:09:40;;;;;;;7.43;2.58;;;19.60;96.70;;;;;;5101452;28;20044;-75
2021/05/23 06:12:09;;;;;;;9.20;2.65;;;19.60;96.70;;;;;;5079507;28;20044;-75
2021/05/23 06:14:38;;;;;;;9.88;3.00;;;19.60;96.70;;;;;;5101944;28;20071;-75
2021/05/23 06:17:07;;;;;;;7.07;2.70;;;19.60;96.70;;;;;;5103268;28;20094;-75
2021/05/23 06:19:35;;;;;;;8.68;2.95;;;19.70;96.70;;;;;;5104269;28;20389;-75
2021/05/23 06:22:04;;;;;;;10.98;2.90;;;19.70;96.70;;;;;;5105817;28;20040;-75
2021/05/23 06:24:32;;;;;;;12.15;3.28;;;19.80;96.70;;;;;;5103033;28;20054;-75
2021/05/23 06:27:00;;;;;;;11.23;3.38;;;19.80;96.70;;;;;;5092701;28;20525;-75
2021/05/23 06:29:28;;;;;;;7.85;3.03;;;19.70;96.70;;;;;;5101361;28;20059;-75
2021/05/23 06:31:56;;;;;;;10.52;2.67;;;19.60;96.70;;;;;;5085751;28;20039;-75
2021/05/23 06:34:25;;;;;;;8.15;3.35;;;19.60;96.70;;;;;;5099842;28;20058;-75
2021/05/23 06:36:53;;;;;;;9.73;3.33;;;19.60;96.70;;;;;;5087201;28;20043;-75
2021/05/23 06:39:21;;;;;;;9.73;3.83;;;19.60;96.70;;;;;;5103099;28;20050;-75
2021/05/23 06:41:49;;;;;;;10.00;3.38;;;19.70;96.70;;;;;;5102393;28;20038;-75
2021/05/23 06:44:18;;;;;;;10.75;4.30;;;19.70;96.70;;;;;;5099568;28;20039;-75
2021/05/23 06:46:46;;;;;;;12.55;3.65;;;19.70;96.70;;;;;;5080795;28;20553;-75
2021/05/23 06:49:15;;;;;;;10.73;3.70;;;19.70;96.70;;;;;;5098388;28;20118;-75
2021/05/23 06:51:44;;;;;;;9.48;3.85;;;19.70;96.70;;;;;;5099967;28;20439;-75
2021/05/23 06:54:12;;;;;;;10.60;4.28;;;19.70;96.70;;;;;;5081589;28;20092;-73
2021/05/23 06:56:40;;;;;;;10.52;3.90;;;19.70;96.70;;;;;;5101871;28;20043;-74
2021/05/23 06:59:08;;;;;;;11.20;3.95;;;19.80;96.70;;;;;;5098341;28;20135;-75
2021/05/23 07:01:39;;;;;;;10.75;4.95;;;20.00;96.70;;;;;;5084710;28;20051;-74
2021/05/23 07:04:07;;;;;;;13.57;5.68;;;20.00;96.70;;;;;;5101095;28;20126;-74
2021/05/23 07:06:36;;;;;;;12.98;5.65;;;20.00;96.70;;;;;;5085059;28;20039;-75
2021/05/23 07:09:05;;;;;;;13.55;5.82;;;20.00;96.70;;;;;;5101766;28;20043;-75
2021/05/23 07:11:33;;;;;;;14.30;5.10;;;20.00;96.70;;;;;;5103244;28;20520;-75
2021/05/23 07:14:01;;;;;;;13.32;5.70;;;20.10;96.70;;;;;;5090737;28;20040;-75
2021/05/23 07:16:29;;;;;;;14.88;5.53;;;20.20;96.70;;;;;;5101982;28;20127;-74
2021/05/23 07:18:57;;;;;;;16.58;5.50;;;20.20;96.70;;;;;;5103416;28;20043;-75
2021/05/23 07:21:25;;;;;;;12.70;5.13;;;20.30;96.70;;;;;;5100574;28;20490;-75
2021/05/23 07:23:54;;;;;;;14.85;4.75;;;20.30;96.70;;;;;;5099688;28;20052;-75
2021/05/23 07:26:23;;;;;;;15.52;4.55;;;20.40;96.70;;;;;;5098488;28;20032;-74
2021/05/23 07:28:52;;;;;;;12.70;4.45;;;20.50;96.70;;;;;;5101532;28;20040;-75
2021/05/23 07:31:21;;;;;;;14.93;4.38;;;20.50;96.70;;;;;;5100987;28;20501;-75
2021/05/23 07:33:49;;;;;;;12.00;3.83;;;20.50;96.70;;;;;;5102486;28;20119;-75
2021/05/23 07:36:17;;;;;;;13.45;3.40;;;20.30;96.70;;;;;;5100298;28;20039;-75
2021/05/23 07:38:45;;;;;;;13.35;3.95;;;20.30;96.70;;;;;;5101077;28;20040;-74
2021/05/23 07:41:13;;;;;;;12.75;4.05;;;20.30;96.70;;;;;;5106486;27;20074;-75
2021/05/23 07:43:42;;;;;;;17.20;4.78;;;20.30;96.70;;;;;;5102184;28;20829;-74
2021/05/23 07:46:10;;;;;;;16.75;4.55;;;20.40;96.70;;;;;;5098263;28;20619;-75
2021/05/23 07:48:38;;;;;;;15.73;5.50;;;20.50;96.70;;;;;;5103702;28;20047;-75
2021/05/23 07:51:07;;;;;;;16.80;5.10;;;20.60;96.70;;;;;;5100965;28;20041;-75
2021/05/23 07:53:35;;;;;;;24.38;5.28;;;20.60;96.70;;;;;;5102255;28;20523;-75
2021/05/23 07:56:06;;;;;;;18.60;4.60;;;20.60;96.70;;;;;;5096914;28;20572;-75
2021/05/23 07:58:34;;;;;;;15.00;4.35;;;20.70;96.70;;;;;;5101892;28;20032;-75
2021/05/23 08:01:03;;;;;;;16.40;5.10;;;20.90;96.70;;;;;;5081561;28;20035;-76
2021/05/23 08:03:32;;;;;;;15.02;4.95;;;21.00;96.70;;;;;;5101233;28;20502;-75
2021/05/23 08:06:00;;;;;;;15.57;4.63;;;21.10;96.70;;;;;;5096075;28;20035;-75
2021/05/23 08:08:28;;;;;;;14.27;4.38;;;21.20;96.70;;;;;;5091504;28;20048;-75
2021/05/23 08:10:57;;;;;;;15.50;4.43;;;21.20;96.70;;;;;;5094808;28;20027;-75
2021/05/23 08:13:25;;;;;;;18.75;4.30;;;21.40;96.70;;;;;;5103047;28;20028;-75
2021/05/23 08:15:56;;;;;;;15.63;5.05;;;21.50;96.70;;;;;;5096102;28;20061;-75
2021/05/23 08:18:29;;;;;;;15.00;4.25;;;21.60;96.70;;;;;;5100767;27;20422;-75
2021/05/23 08:20:58;;;;;;;13.88;3.85;;;21.60;96.70;;;;;;5094911;28;20043;-74
2021/05/23 08:23:29;;;;;;;13.57;3.60;;;21.70;96.70;;;;;;5089447;28;20085;-75
2021/05/23 08:25:58;;;;;;;14.35;3.08;;;21.80;96.70;;;;;;5100383;28;20675;-75
2021/05/23 08:28:32;;;;;;;10.98;2.53;;;21.90;96.70;;;;;;5099087;28;20123;-75
2021/05/23 08:31:01;;;;;;;11.65;3.05;;;22.00;96.70;;;;;;5098667;28;20044;-75
2021/05/23 08:33:31;;;;;;;10.95;2.65;;;22.00;96.70;;;;;;5099176;28;20064;-75
2021/05/23 08:35:59;;;;;;;9.85;3.30;;;22.00;96.70;;;;;;5084292;28;20101;-75
2021/05/23 08:38:27;;;;;;;13.02;2.78;;;22.10;96.70;;;;;;5099053;28;20620;-76
2021/05/23 08:41:00;;;;;;;12.00;2.30;;;22.20;96.70;;;;;;5101372;28;20055;-76
2021/05/23 08:43:29;;;;;;;10.07;2.50;;;22.20;96.70;;;;;;5096388;28;20492;-75
2021/05/23 08:45:59;;;;;;;5.95;1.70;;;22.20;96.70;;;;;;5085127;28;20051;-76
2021/05/23 08:48:28;;;;;;;10.20;2.53;;;22.30;96.70;;;;;;5096232;28;20047;-76
2021/05/23 08:50:57;;;;;;;24.75;4.65;;;22.40;96.70;;;;;;5082018;28;20051;-75
2021/05/23 08:53:27;;;;;;;14.15;3.25;;;22.40;96.70;;;;;;5083245;28;20558;-75
2021/05/23 08:56:00;;;;;;;13.23;3.10;;;22.50;96.70;;;;;;5087175;27;20054;-76
2021/05/23 08:58:29;;;;;;;11.73;2.97;;;22.40;96.70;;;;;;5101204;27;20357;-76
2021/05/23 09:00:57;;;;;;;9.75;2.25;;;22.40;96.70;;;;;;5096614;27;20117;-76
2021/05/23 09:03:25;;;;;;;7.55;2.28;;;22.30;96.70;;;;;;5101178;28;20055;-77
2021/05/23 09:05:57;;;;;;;9.57;2.45;;;22.40;96.70;;;;;;5103910;27;20598;-78
2021/05/23 09:08:29;;;;;;;9.77;2.92;;;22.50;96.70;;;;;;5098440;28;20306;-79
2021/05/23 09:11:00;;;;;;;11.25;3.08;;;22.60;96.70;;;;;;5084468;28;20047;-78
2021/05/23 09:13:30;;;;;;;14.02;2.88;;;22.60;96.70;;;;;;5098504;27;20095;-78
2021/05/23 09:16:00;;;;;;;9.18;2.25;;;22.70;96.70;;;;;;5084843;28;20047;-77
2021/05/23 09:18:40;;;;;;;7.80;2.10;;;22.70;96.20;;;;;;5102335;27;20481;-79
2021/05/23 09:21:10;;;;;;;12.48;2.85;;;22.70;96.00;;;;;;5105661;27;20146;-78
2021/05/23 09:23:47;;;;;;;9.30;2.47;;;22.80;96.70;;;;;;5084463;28;20039;-78
2021/05/23 09:26:19;;;;;;;9.02;2.30;;;22.90;96.70;;;;;;5101464;28;20131;-78
2021/05/23 09:28:49;;;;;;;9.90;2.80;;;22.80;96.70;;;;;;5089540;28;20051;-77
2021/05/23 09:31:19;;;;;;;9.27;3.05;;;22.90;96.70;;;;;;5099681;28;20059;-79
2021/05/23 09:33:50;;;;;;;13.25;3.03;;;22.90;96.70;;;;;;5096747;28;20101;-76
2021/05/23 09:36:20;;;;;;;8.38;2.20;;;22.90;96.20;;;;;;5092915;28;20054;-76
2021/05/23 09:38:57;;;;;;;10.35;2.70;;;22.90;95.70;;;;;;5108225;28;20041;-77
2021/05/23 09:41:27;;;;;;;13.73;2.92;;;22.70;96.70;;;;;;5105098;28;20084;-77
2021/05/23 09:44:20;;;;;;;8.88;2.78;;;22.70;96.70;;;;;;5084147;28;20043;-77
2021/05/23 09:46:53;;;;;;;11.48;3.40;;;22.80;96.70;;;;;;5082632;28;20228;-76
2021/05/23 09:49:22;;;;;;;12.38;2.92;;;22.80;96.70;;;;;;5102443;28;20040;-77
2021/05/23 09:51:53;;;;;;;15.98;3.08;;;22.70;96.70;;;;;;5103240;28;20055;-77
2021/05/23 09:54:24;;;;;;;10.30;3.05;;;22.70;96.70;;;;;;5109738;28;20051;-75
2021/05/23 09:56:52;;;;;;;10.15;3.00;;;22.80;96.70;;;;;;5097887;28;20052;-77
2021/05/23 09:59:22;;;;;;;8.40;2.58;;;22.70;96.70;;;;;;5099771;28;20039;-75
2021/05/23 10:01:51;;;;;;;12.38;2.85;;;22.80;96.70;;;;;;5097802;28;20117;-76
2021/05/23 10:04:21;;;;;;;10.02;2.67;;;22.90;95.90;;;;;;5095768;28;20277;-76
2021/05/23 10:06:59;;;;;;;10.38;2.72;;;23.00;96.40;;;;;;5112090;27;20044;-76
2021/05/23 10:09:29;;;;;;;11.93;3.65;;;23.10;96.70;;;;;;5079728;28;20056;-76
2021/05/23 10:11:58;;;;;;;9.63;2.45;;;23.20;96.70;;;;;;5096718;28;20502;-76
2021/05/23 10:14:28;;;;;;;6.72;2.67;;;23.20;96.70;;;;;;5084066;28;20040;-76
2021/05/23 10:16:57;;;;;;;11.15;2.70;;;23.10;96.50;;;;;;5100605;28;20048;-76
2021/05/23 10:19:26;;;;;;;11.23;3.15;;;23.00;96.00;;;;;;5099502;28;20122;-77
2021/05/23 10:21:57;;;;;;;13.55;2.88;;;23.10;96.50;;;;;;5101383;28;20044;-77
2021/05/23 10:24:28;;;;;;;14.48;3.42;;;23.20;96.70;;;;;;5082927;28;20047;-76
2021/05/23 10:27:06;;;;;;;10.23;2.58;;;23.30;96.70;;;;;;5102430;28;20043;-77
2021/05/23 10:29:38;;;;;;;9.55;2.55;;;23.30;95.00;;;;;;5101419;28;20053;-75
2021/05/23 10:32:08;;;;;;;7.35;2.97;;;23.40;96.70;;;;;;5103482;28;20425;-75
2021/05/23 10:34:46;;;;;;;11.43;3.00;;;23.50;95.80;;;;;;5099976;28;20433;-74
2021/05/23 10:37:17;;;;;;;13.60;3.13;;;23.50;96.10;;;;;;5104117;28;20092;-75
2021/05/23 10:39:51;;;;;;;10.25;2.75;;;23.50;95.10;;;;;;5097375;28;20036;-76
2021/05/23 10:42:21;;;;;;;7.30;2.47;;;23.40;95.50;;;;;;5093872;28;20543;-76
2021/05/23 10:44:51;;;;;;;10.25;2.85;;;23.50;94.10;;;;;;5100959;28;20239;-76
2021/05/23 10:47:25;;;;;;;9.13;2.20;;;23.80;93.80;;;;;;5103714;28;20480;-76
2021/05/23 10:50:00;;;;;;;11.52;3.45;;;23.80;94.80;;;;;;5102437;28;20039;-77
2021/05/23 10:52:33;;;;;;;5.13;1.75;;;23.90;95.10;;;;;;5097351;28;20052;-75
2021/05/23 10:55:05;;;;;;;6.93;2.13;;;24.00;94.10;;;;;;5098929;28;20507;-76
2021/05/23 10:57:45;;;;;;;9.32;2.20;;;24.00;91.40;;;;;;5097927;28;20047;-76
2021/05/23 11:00:20;;;;;;;6.53;2.30;;;24.00;91.00;;;;;;5100095;28;20291;-76
2021/05/23 11:02:51;;;;;;;9.27;2.30;;;24.30;91.40;;;;;;5084046;28;20138;-76
2021/05/23 11:05:25;;;;;;;7.65;2.47;;;24.30;91.00;;;;;;5093425;28;20043;-76
2021/05/23 11:07:55;;;;;;;9.18;2.17;;;24.30;91.00;;;;;;5097389;28;20301;-76
2021/05/23 11:10:26;;;;;;;8.82;2.70;;;24.00;91.30;;;;;;5097720;28;20802;-76
2021/05/23 11:12:58;;;;;;;12.18;3.03;;;24.10;93.20;;;;;;5097683;28;20052;-76
2021/05/23 11:15:42;;;;;;;4.93;1.98;;;24.20;92.50;;;;;;5081867;28;20044;-77
2021/05/23 11:18:13;;;;;;;7.78;2.15;;;24.10;89.50;;;;;;5099197;28;20059;-76
2021/05/23 11:20:42;;;;;;;8.20;2.40;;;24.00;89.30;;;;;;5103035;28;20063;-76
2021/05/23 11:23:10;;;;;;;8.52;2.72;;;24.00;90.20;;;;;;5105204;27;20050;-76
2021/05/23 11:25:39;;;;;;;5.60;2.47;;;23.90;91.70;;;;;;5102024;28;20078;-76
2021/05/23 11:28:10;;;;;;;9.73;2.53;;;23.70;93.00;;;;;;5096549;28;20488;-76
2021/05/23 11:30:38;;;;;;;7.13;2.30;;;23.90;92.50;;;;;;5094205;27;20074;-76
2021/05/23 11:33:09;;;;;;;10.73;3.08;;;24.00;93.20;;;;;;5098979;28;20040;-76
2021/05/23 11:35:39;;;;;;;9.63;2.53;;;23.80;92.30;;;;;;5099244;28;20035;-76
2021/05/23 11:38:08;;;;;;;10.02;2.53;;;23.60;92.80;;;;;;5095131;28;20055;-76
2021/05/23 11:40:40;;;;;;;10.23;2.13;;;23.40;93.40;;;;;;5100946;28;20474;-75
2021/05/23 11:43:15;;;;;;;13.38;3.00;;;23.40;93.20;;;;;;5082430;28;20052;-76
2021/05/23 11:45:55;;;;;;;9.05;2.70;;;23.60;93.50;;;;;;5097119;28;20063;-77
2021/05/23 11:48:35;;;;;;;8.23;2.70;;;24.00;92.80;;;;;;5098191;28;20123;-76
2021/05/23 11:51:04;;;;;;;8.55;2.33;;;24.30;92.10;;;;;;5092181;28;20055;-76
2021/05/23 11:53:40;;;;;;;7.93;2.00;;;24.50;92.70;;;;;;5101915;28;20048;-76
2021/05/23 11:56:12;;;;;;;6.63;2.20;;;24.70;91.30;;;;;;5096019;28;20134;-76
2021/05/23 11:58:49;;;;;;;9.80;2.78;;;24.50;90.60;;;;;;5101216;28;20048;-75
2021/05/23 12:01:20;;;;;;;7.53;2.35;;;24.50;90.70;;;;;;5088501;28;20032;-75
2021/05/23 12:04:00;;;;;;;6.70;1.92;;;24.70;91.50;;;;;;5100044;28;20056;-75
2021/05/23 12:06:30;;;;;;;8.10;2.30;;;25.00;90.80;;;;;;5089276;28;20050;-76
2021/05/23 12:09:13;;;;;;;8.48;2.42;;;25.20;90.30;;;;;;5090652;28;20047;-75
2021/05/23 12:11:45;;;;;;;9.52;2.22;;;25.30;90.20;;;;;;5097094;28;20051;-76
2021/05/23 12:14:26;;;;;;;8.35;2.72;;;25.40;91.00;;;;;;5100961;28;20050;-76
2021/05/23 12:17:03;;;;;;;8.85;2.22;;;25.10;90.60;;;;;;5096791;28;20054;-76
2021/05/23 12:19:52;;;;;;;10.13;2.78;;;24.90;90.50;;;;;;5100067;28;20036;-76
2021/05/23 12:22:22;;;;;;;11.82;2.33;;;24.80;91.50;;;;;;5097136;28;20090;-76
2021/05/23 12:24:52;;;;;;;6.43;2.03;;;25.20;91.00;;;;;;5095470;28;20579;-76
2021/05/23 12:27:28;;;;;;;8.48;2.35;;;25.10;89.90;;;;;;5093433;28;20047;-75
2021/05/23 12:30:08;;;;;;;6.90;1.95;;;25.30;88.90;;;;;;5094271;28;20130;-75
2021/05/23 12:32:41;;;;;;;6.68;1.98;;;25.40;86.30;;;;;;5098026;28;20641;-76
2021/05/23 12:35:12;;;;;;;7.50;1.90;;;25.60;88.00;;;;;;5091665;28;20370;-76
2021/05/23 12:37:41;;;;;;;8.50;2.25;;;25.60;87.40;;;;;;5100238;28;20048;-76
2021/05/23 12:40:24;;;;;;;7.32;1.95;;;25.70;86.60;;;;;;5099778;28;20385;-76
2021/05/23 12:42:53;;;;;;;8.82;2.03;;;25.70;87.70;;;;;;5091811;28;20567;-76
2021/05/23 12:45:22;;;;;;;5.72;1.83;;;25.80;86.20;;;;;;5113085;27;20048;-76
2021/05/23 12:47:54;;;;;;;8.18;2.33;;;25.80;85.70;;;;;;5100726;28;20043;-76
2021/05/23 12:50:36;;;;;;;7.43;2.20;;;25.40;86.20;;;;;;5098880;28;20614;-76
2021/05/23 12:53:05;;;;;;;12.85;2.70;;;25.30;85.90;;;;;;5082447;28;20043;-76
2021/05/23 12:55:38;;;;;;;4.40;2.05;;;25.40;87.00;;;;;;5100454;28;20108;-76
2021/05/23 12:58:07;;;;;;;6.85;2.42;;;25.50;86.50;;;;;;5098882;28;20526;-76
2021/05/23 13:00:48;;;;;;;7.53;2.05;;;25.80;85.80;;;;;;5095120;28;20032;-75
2021/05/23 13:03:18;;;;;;;6.03;1.95;;;26.30;85.50;;;;;;5095574;28;20122;-76
2021/05/23 13:06:04;;;;;;;10.77;2.10;;;26.20;83.80;;;;;;5090344;28;20164;-76